Dole Colombia — C6QZ5 — position and weather

sailwx.info

Track history (hours):
 
Tides and Currents Weather Stations Pressure Air Temp Water Temp Dewpoint Dewpoint Depression Visibility Wind Speed Wind Dir Waves Ship Positions

Dole Colombia

Last reported at 2017-Nov-14 10:17 UTC. Time now 2017-Nov-18 14:27 UTC.
Position N 37°55' W 074°34'.

Length 205 m; draft 8.5 m.

Type: Cargo ship. MMSI: 309403000.

Date/timePositionNaut miles runAvg speedWind from/ knotsBaromVisibWave heightAir tempDewpointWater temp
2017-Nov-14 10:17N 37°55' W 074°34'1117.1
2017-Nov-14 09:40N 38°06' W 074°37'717.0
2017-Nov-14 09:15N 38°12' W 074°40'516.8
2017-Nov-14 08:58N 38°17' W 074°41'2513.4
2017-Nov-14 07:06N 38°39' W 074°56'13 9.7
2017-Nov-14 05:43N 38°51' W 075°05'415.1
2017-Nov-14 05:28N 38°54' W 075°06'816.2
2017-Nov-14 05:00N 39°01' W 075°09'816.9
2017-Nov-14 04:30N 39°09' W 075°14'917.6
2017-Nov-14 04:00N 39°16' W 075°21'917.8
2017-Nov-14 03:30N 39°23' W 075°28'815.8
2017-Nov-14 03:01N 39°29' W 075°34'714.7
2017-Nov-14 02:30N 39°37' W 075°35'613.1
2017-Nov-14 02:00N 39°42' W 075°31'1 2.0
2017-Nov-14 01:30N 39°43' W 075°32'0 0.0
2017-Nov-14 00:58N 39°43' W 075°32'0 0.0
2017-Nov-14 00:30N 39°43' W 075°32'0 0.0
2017-Nov-14 00:00N 39°43' W 075°32'0 0.0
2017-Nov-13 23:30N 39°43' W 075°32'0 0.0
2017-Nov-13 23:01N 39°43' W 075°32'0 0.0
2017-Nov-13 22:30N 39°43' W 075°32'0 0.0
2017-Nov-13 22:00N 39°43' W 075°32'0 0.0
2017-Nov-13 02:00N 39°43' W 075°32'0 0.0
2017-Nov-13 01:30N 39°43' W 075°32'0 0.0
2017-Nov-13 01:00N 39°43' W 075°32'0 0.0
2017-Nov-13 00:30N 39°43' W 075°32'0 0.0
2017-Nov-13 00:00N 39°43' W 075°32'0 0.0
2017-Nov-12 23:30N 39°43' W 075°32'0 0.0
2017-Nov-12 23:00N 39°43' W 075°32'0 0.0
2017-Nov-12 22:30N 39°43' W 075°32'0 0.0
2017-Nov-12 22:00N 39°43' W 075°32'0 0.0
2017-Nov-12 21:30N 39°43' W 075°32'0 0.0
2017-Nov-12 21:00N 39°43' W 075°32'0 0.0
2017-Nov-12 20:27N 39°43' W 075°32'0 0.0
2017-Nov-12 20:00N 39°43' W 075°32'0 0.0
2017-Nov-12 19:30N 39°43' W 075°32'0 0.0
2017-Nov-12 19:00N 39°43' W 075°32'0 0.0
2017-Nov-12 18:30N 39°43' W 075°32'0 0.0
2017-Nov-12 18:00N 39°43' W 075°32'0 0.0
2017-Nov-12 17:30N 39°43' W 075°32'0 0.0
2017-Nov-12 17:00N 39°43' W 075°32'0 0.0
2017-Nov-12 16:30N 39°43' W 075°32'0 0.0
2017-Nov-12 16:00N 39°43' W 075°32'0 0.0
2017-Nov-12 15:30N 39°43' W 075°32'0 0.0
2017-Nov-12 15:00N 39°43' W 075°32'0 0.0
2017-Nov-12 14:30N 39°43' W 075°32'0 0.0
2017-Nov-12 14:01N 39°43' W 075°32'0 0.0
2017-Nov-12 13:30N 39°43' W 075°32'0 0.0
2017-Nov-12 13:00N 39°43' W 075°32'0 0.0
2017-Nov-12 12:30N 39°43' W 075°32'0 0.0
2017-Nov-12 12:00N 39°43' W 075°32'0 0.0
2017-Nov-12 11:31N 39°43' W 075°32'0 0.0
2017-Nov-12 11:00N 39°43' W 075°32'0 0.0
2017-Nov-12 10:30N 39°43' W 075°32'0 0.0
2017-Nov-12 10:00N 39°43' W 075°32'0 0.0
2017-Nov-12 09:30N 39°43' W 075°32'0 0.0
2017-Nov-12 09:00N 39°43' W 075°32'0 0.0
2017-Nov-12 08:30N 39°43' W 075°32'0 0.0
2017-Nov-12 08:00N 39°43' W 075°32'0 0.5
2017-Nov-12 07:31N 39°43' W 075°31'1 2.9
2017-Nov-12 07:00N 39°42' W 075°31'4 8.9
2017-Nov-12 06:30N 39°38' W 075°34'713.4
2017-Nov-12 06:01N 39°31' W 075°33'713.2
2017-Nov-12 05:31N 39°25' W 075°31'714.6
2017-Nov-12 05:01N 39°20' W 075°25'715.0
2017-Nov-12 04:30N 39°14' W 075°18'714.3
2017-Nov-12 04:00N 39°08' W 075°14'713.7
2017-Nov-12 03:30N 39°02' W 075°09'  
2017-Nov-04 15:03N 11°13' W 074°59'317.2
2017-Nov-04 14:51N 11°14' W 074°56'616.2
2017-Nov-04 14:30N 11°15' W 074°50'816.8
2017-Nov-04 14:00N 11°15' W 074°41'  
Track history (hours):
 
Tides and Currents Weather Stations Pressure Air Temp Water Temp Dewpoint Dewpoint Depression Visibility Wind Speed Wind Dir Waves Ship Positions

Dole Colombia

Last reported at 2017-Nov-14 10:17 UTC. Time now 2017-Nov-18 14:27 UTC.
Position N 37°55' W 074°34'.

Length 205 m; draft 8.5 m.

Type: Cargo ship. MMSI: 309403000.

Date/timePositionNaut miles runAvg speedWind from/ knotsBaromVisibWave heightAir tempDewpointWater temp
2017-Nov-14 10:17N 37°55' W 074°34'1117.1
2017-Nov-14 09:40N 38°06' W 074°37'717.0
2017-Nov-14 09:15N 38°12' W 074°40'516.8
2017-Nov-14 08:58N 38°17' W 074°41'2513.4
2017-Nov-14 07:06N 38°39' W 074°56'13 9.7
2017-Nov-14 05:43N 38°51' W 075°05'415.1
2017-Nov-14 05:28N 38°54' W 075°06'816.2
2017-Nov-14 05:00N 39°01' W 075°09'816.9
2017-Nov-14 04:30N 39°09' W 075°14'917.6
2017-Nov-14 04:00N 39°16' W 075°21'917.8
2017-Nov-14 03:30N 39°23' W 075°28'815.8
2017-Nov-14 03:01N 39°29' W 075°34'714.7
2017-Nov-14 02:30N 39°37' W 075°35'613.1
2017-Nov-14 02:00N 39°42' W 075°31'1 2.0
2017-Nov-14 01:30N 39°43' W 075°32'0 0.0
2017-Nov-14 00:58N 39°43' W 075°32'0 0.0
2017-Nov-14 00:30N 39°43' W 075°32'0 0.0
2017-Nov-14 00:00N 39°43' W 075°32'0 0.0
2017-Nov-13 23:30N 39°43' W 075°32'0 0.0
2017-Nov-13 23:01N 39°43' W 075°32'0 0.0
2017-Nov-13 22:30N 39°43' W 075°32'0 0.0
2017-Nov-13 22:00N 39°43' W 075°32'0 0.0
2017-Nov-13 02:00N 39°43' W 075°32'0 0.0
2017-Nov-13 01:30N 39°43' W 075°32'0 0.0
2017-Nov-13 01:00N 39°43' W 075°32'0 0.0
2017-Nov-13 00:30N 39°43' W 075°32'0 0.0
2017-Nov-13 00:00N 39°43' W 075°32'0 0.0
2017-Nov-12 23:30N 39°43' W 075°32'0 0.0
2017-Nov-12 23:00N 39°43' W 075°32'0 0.0
2017-Nov-12 22:30N 39°43' W 075°32'0 0.0
2017-Nov-12 22:00N 39°43' W 075°32'0 0.0
2017-Nov-12 21:30N 39°43' W 075°32'0 0.0
2017-Nov-12 21:00N 39°43' W 075°32'0 0.0
2017-Nov-12 20:27N 39°43' W 075°32'0 0.0
2017-Nov-12 20:00N 39°43' W 075°32'0 0.0
2017-Nov-12 19:30N 39°43' W 075°32'0 0.0
2017-Nov-12 19:00N 39°43' W 075°32'0 0.0
2017-Nov-12 18:30N 39°43' W 075°32'0 0.0
2017-Nov-12 18:00N 39°43' W 075°32'0 0.0
2017-Nov-12 17:30N 39°43' W 075°32'0 0.0
2017-Nov-12 17:00N 39°43' W 075°32'0 0.0
2017-Nov-12 16:30N 39°43' W 075°32'0 0.0
2017-Nov-12 16:00N 39°43' W 075°32'0 0.0
2017-Nov-12 15:30N 39°43' W 075°32'0 0.0
2017-Nov-12 15:00N 39°43' W 075°32'0 0.0
2017-Nov-12 14:30N 39°43' W 075°32'0 0.0
2017-Nov-12 14:01N 39°43' W 075°32'0 0.0
2017-Nov-12 13:30N 39°43' W 075°32'0 0.0
2017-Nov-12 13:00N 39°43' W 075°32'0 0.0
2017-Nov-12 12:30N 39°43' W 075°32'0 0.0
2017-Nov-12 12:00N 39°43' W 075°32'0 0.0
2017-Nov-12 11:31N 39°43' W 075°32'0 0.0
2017-Nov-12 11:00N 39°43' W 075°32'0 0.0
2017-Nov-12 10:30N 39°43' W 075°32'0 0.0
2017-Nov-12 10:00N 39°43' W 075°32'0 0.0
2017-Nov-12 09:30N 39°43' W 075°32'0 0.0
2017-Nov-12 09:00N 39°43' W 075°32'0 0.0
2017-Nov-12 08:30N 39°43' W 075°32'0 0.0
2017-Nov-12 08:00N 39°43' W 075°32'0 0.5
2017-Nov-12 07:31N 39°43' W 075°31'1 2.9
2017-Nov-12 07:00N 39°42' W 075°31'4 8.9
2017-Nov-12 06:30N 39°38' W 075°34'713.4
2017-Nov-12 06:01N 39°31' W 075°33'713.2
2017-Nov-12 05:31N 39°25' W 075°31'714.6
2017-Nov-12 05:01N 39°20' W 075°25'715.0
2017-Nov-12 04:30N 39°14' W 075°18'714.3
2017-Nov-12 04:00N 39°08' W 075°14'713.7
2017-Nov-12 03:30N 39°02' W 075°09'  
2017-Nov-04 15:03N 11°13' W 074°59'317.2
2017-Nov-04 14:51N 11°14' W 074°56'616.2
2017-Nov-04 14:30N 11°15' W 074°50'816.8
2017-Nov-04 14:00N 11°15' W 074°41'  

Dump ship's entire track history